createdAt,value
2023-03-06T09:12:49.777Z,0.52
2023-03-06T09:15:18.814Z,0.70
2023-03-06T09:17:45.879Z,0.60
2023-03-06T09:20:13.022Z,0.60
2023-03-06T09:22:42.350Z,0.50
2023-03-06T09:25:11.061Z,0.43
2023-03-06T09:27:37.874Z,0.47
2023-03-06T09:30:05.379Z,0.40
2023-03-06T09:32:32.466Z,0.40
2023-03-06T09:35:00.646Z,0.50
2023-03-06T09:37:27.382Z,0.60
2023-03-06T09:39:54.052Z,0.52
2023-03-06T09:42:23.461Z,0.65
2023-03-06T09:45:00.975Z,5.38
2023-03-06T09:47:52.679Z,1.70
2023-03-06T09:50:38.385Z,0.90
2023-03-06T09:53:36.043Z,0.57
2023-03-06T09:56:10.668Z,0.52
2023-03-06T09:58:48.485Z,0.52
2023-03-06T10:01:16.260Z,0.40
2023-03-06T10:04:05.180Z,0.47
2023-03-06T10:06:45.361Z,0.50
2023-03-06T10:09:23.013Z,0.60
2023-03-06T10:12:00.633Z,0.70
2023-03-06T10:15:05.710Z,0.50
2023-03-06T10:17:38.243Z,0.70
2023-03-06T10:20:19.869Z,0.45
2023-03-06T10:23:20.783Z,0.47
2023-03-06T10:26:03.532Z,0.70
2023-03-06T10:28:58.249Z,0.57
2023-03-06T10:31:27.748Z,0.50
2023-03-06T10:34:10.892Z,0.63
2023-03-06T10:39:14.012Z,0.73
2023-03-06T10:41:40.782Z,0.43
2023-03-06T10:44:08.975Z,0.40
2023-03-06T10:46:40.193Z,0.55
2023-03-06T10:49:49.029Z,0.38
2023-03-06T10:52:15.723Z,0.50
2023-03-06T10:54:44.079Z,0.55
2023-03-06T10:57:31.122Z,0.60
2023-03-06T11:00:00.589Z,0.47
2023-03-06T11:02:27.412Z,0.60
2023-03-06T11:04:55.598Z,0.70
2023-03-06T11:07:26.001Z,0.70
2023-03-06T11:09:59.006Z,0.50
2023-03-06T11:12:34.554Z,0.50
2023-03-06T11:15:10.132Z,0.63
2023-03-06T11:17:48.241Z,0.60
2023-03-06T11:20:14.926Z,0.50
2023-03-06T11:22:47.579Z,0.95
2023-03-06T11:25:18.428Z,1.30
2023-03-06T11:27:50.597Z,0.82
2023-03-06T11:30:26.446Z,2.63
2023-03-06T11:33:01.835Z,1.48
2023-03-06T11:35:35.800Z,0.82
2023-03-06T11:38:30.785Z,0.82
2023-03-06T11:41:01.901Z,0.40
2023-03-06T11:43:49.697Z,0.30
2023-03-06T11:46:34.399Z,0.45
2023-03-06T11:49:18.831Z,0.50
2023-03-06T11:51:52.842Z,0.57
2023-03-06T11:54:19.620Z,0.55
2023-03-06T11:57:08.006Z,0.60
2023-03-06T11:59:37.677Z,0.50
2023-03-06T12:02:23.655Z,0.70
2023-03-06T12:05:14.594Z,0.40
2023-03-06T12:07:53.127Z,0.50
2023-03-06T12:10:41.137Z,0.68
2023-03-06T12:13:20.265Z,0.73
2023-03-06T12:16:05.625Z,1.80
2023-03-06T12:18:43.021Z,0.80
2023-03-06T12:21:35.819Z,0.80
2023-03-06T12:24:32.884Z,0.50
2023-03-06T12:27:08.973Z,1.40
2023-03-06T12:30:01.339Z,2.30
2023-03-06T12:32:47.586Z,1.60
2023-03-06T12:35:51.913Z,1.60
2023-03-06T12:38:48.347Z,1.10
2023-03-06T12:41:38.324Z,1.45
2023-03-06T12:44:39.992Z,1.85
2023-03-06T12:47:17.869Z,1.90
2023-03-06T12:49:59.952Z,1.77
2023-03-06T12:52:31.234Z,1.50
2023-03-06T12:55:01.061Z,1.33
2023-03-06T12:57:27.803Z,1.23
2023-03-06T12:59:54.918Z,1.23
2023-03-06T13:02:49.656Z,1.30
2023-03-06T13:05:31.203Z,1.70
2023-03-06T13:08:39.464Z,1.80
2023-03-06T13:11:44.413Z,1.40
2023-03-06T13:14:28.218Z,1.73
2023-03-06T13:17:15.342Z,2.00
2023-03-06T13:19:42.119Z,1.80
2023-03-06T13:22:27.741Z,1.88
2023-03-06T13:25:19.143Z,1.85
2023-03-06T13:27:53.908Z,2.30
2023-03-06T13:30:27.948Z,2.13
2023-03-06T13:32:56.164Z,2.80
2023-03-06T13:35:35.711Z,1.90
2023-03-06T13:38:02.578Z,1.90
2023-03-06T13:40:34.714Z,2.15
2023-03-06T13:43:07.484Z,2.53
2023-03-06T13:45:39.843Z,2.30
2023-03-06T13:48:30.210Z,2.38
2023-03-06T13:50:55.448Z,2.15
2023-03-06T13:53:40.654Z,2.00
2023-03-06T13:56:28.690Z,2.22
2023-03-06T13:59:26.532Z,2.72
2023-03-06T14:01:59.133Z,2.40
2023-03-06T14:04:53.369Z,2.63
2023-03-06T14:07:26.135Z,2.58
2023-03-06T14:09:55.939Z,3.17
2023-03-06T14:12:28.519Z,2.95
2023-03-06T14:15:01.377Z,3.10
2023-03-06T14:17:34.534Z,3.38
2023-03-06T14:20:13.427Z,3.47
2023-03-06T14:22:40.241Z,4.32
2023-03-06T14:25:31.212Z,4.35
2023-03-06T14:28:05.737Z,3.80
2023-03-06T14:30:52.161Z,3.45
2023-03-06T14:33:33.412Z,3.50
2023-03-06T14:36:03.204Z,3.58
2023-03-06T14:38:34.994Z,3.38
2023-03-06T14:41:03.259Z,3.65
2023-03-06T14:43:31.720Z,3.38
2023-03-06T14:46:04.928Z,3.33
2023-03-06T14:48:44.323Z,3.33
2023-03-06T14:51:19.120Z,3.63
2023-03-06T14:53:49.040Z,4.00
2023-03-06T14:56:22.043Z,3.53
2023-03-06T14:59:02.985Z,4.40
2023-03-06T15:01:41.435Z,4.05
2023-03-06T15:04:27.065Z,4.13
2023-03-06T15:06:56.246Z,4.38
2023-03-06T15:09:32.631Z,4.65
2023-03-06T15:12:07.007Z,4.63
2023-03-06T15:14:36.952Z,4.63
2023-03-06T15:17:19.072Z,4.70
2023-03-06T15:19:47.658Z,3.90
2023-03-06T15:22:39.733Z,4.30
2023-03-06T15:25:30.595Z,5.88
2023-03-06T15:27:59.634Z,4.88
2023-03-06T15:30:32.945Z,4.15
2023-03-06T15:33:29.279Z,5.20
2023-03-06T15:35:57.006Z,3.28
2023-03-06T15:38:31.236Z,3.58
2023-03-06T15:41:00.147Z,3.60
2023-03-06T15:43:38.162Z,4.22
2023-03-06T15:46:06.964Z,4.00
2023-03-06T15:48:35.248Z,4.40
2023-03-06T15:51:02.791Z,3.80
2023-03-06T15:53:29.627Z,4.35
2023-03-06T15:55:57.778Z,3.85
2023-03-06T15:58:27.032Z,3.63
2023-03-06T16:00:53.853Z,4.20
2023-03-06T16:03:20.629Z,4.32
2023-03-06T16:05:47.517Z,4.00
2023-03-06T16:08:14.911Z,3.90
2023-03-06T16:10:43.874Z,5.35
2023-03-06T16:13:14.994Z,4.88
2023-03-06T16:15:47.707Z,5.13
2023-03-06T16:18:14.478Z,4.13
2023-03-06T16:20:41.662Z,4.10
2023-03-06T16:23:10.579Z,4.28
2023-03-06T16:25:40.038Z,4.43
2023-03-06T16:28:12.169Z,4.40
2023-03-06T16:30:39.113Z,4.63
2023-03-06T16:33:06.061Z,4.53
2023-03-06T16:35:32.863Z,4.13
2023-03-06T16:38:00.108Z,3.88
2023-03-06T16:40:40.904Z,4.13
2023-03-06T16:43:09.016Z,4.50
2023-03-06T16:45:38.654Z,4.35
2023-03-06T16:48:06.921Z,4.70
2023-03-06T16:50:37.845Z,4.95
2023-03-06T16:53:05.167Z,4.30
2023-03-06T16:55:31.944Z,5.07
2023-03-06T16:57:58.694Z,4.20
2023-03-06T17:00:27.444Z,4.63
2023-03-06T17:02:55.531Z,4.22
2023-03-06T17:05:22.444Z,4.55
2023-03-06T17:07:50.420Z,5.22
2023-03-06T17:10:19.641Z,5.38
2023-03-06T17:12:46.453Z,5.72
2023-03-06T17:15:13.309Z,4.22
2023-03-06T17:17:40.035Z,4.97
2023-03-06T17:20:11.935Z,5.07
2023-03-06T17:22:38.836Z,5.05
2023-03-06T17:25:07.089Z,4.70
2023-03-06T17:27:35.332Z,4.07
2023-03-06T17:30:02.513Z,4.63
2023-03-06T17:32:29.278Z,5.13
2023-03-06T17:34:56.031Z,6.10
2023-03-06T17:37:22.855Z,5.65
2023-03-06T17:39:49.743Z,5.47
2023-03-06T17:42:16.828Z,4.97
2023-03-06T17:44:43.595Z,5.47
2023-03-06T17:47:10.746Z,5.93
2023-03-06T17:49:37.558Z,6.22
2023-03-06T17:52:05.723Z,6.40
2023-03-06T17:54:33.237Z,6.78
2023-03-06T17:57:03.450Z,7.20
2023-03-06T17:59:31.146Z,7.68
2023-03-06T18:01:59.553Z,7.95
2023-03-06T18:04:26.951Z,7.18
2023-03-06T18:06:53.825Z,7.88
2023-03-06T18:09:20.696Z,9.13
2023-03-06T18:11:47.532Z,9.90
2023-03-06T18:14:14.280Z,9.05
2023-03-06T18:16:41.402Z,8.40
2023-03-06T18:19:11.140Z,8.55
